createdAt,value
2018-11-02T00:02:04.468Z,102.03
2018-11-02T00:04:35.132Z,100.33
2018-11-02T00:07:06.392Z,98.20
2018-11-02T00:09:37.327Z,97.60
2018-11-02T00:12:07.880Z,98.63
2018-11-02T00:14:39.179Z,97.57
2018-11-02T00:17:10.571Z,91.87
2018-11-02T00:19:41.325Z,91.10
2018-11-02T00:22:12.310Z,96.73
2018-11-02T00:24:43.077Z,95.27
2018-11-02T00:27:14.357Z,97.23
2018-11-02T00:29:45.205Z,101.27
2018-11-02T00:32:16.225Z,98.43
2018-11-02T00:34:47.783Z,95.33
2018-11-02T00:37:19.226Z,86.53
2018-11-02T00:39:50.961Z,89.77
2018-11-02T00:42:21.485Z,81.10
2018-11-02T00:44:52.302Z,88.80
2018-11-02T00:47:22.911Z,87.87
2018-11-02T00:49:53.382Z,87.53
2018-11-02T00:52:24.423Z,87.07
2018-11-02T00:54:55.480Z,85.50
2018-11-02T00:57:26.306Z,83.57
2018-11-02T00:59:57.659Z,90.63
2018-11-02T01:02:28.452Z,94.60
2018-11-02T01:04:59.833Z,90.93
2018-11-02T01:07:29.914Z,89.27
2018-11-02T01:10:00.896Z,83.80
2018-11-02T01:12:31.818Z,84.17
2018-11-02T01:15:02.535Z,85.77
2018-11-02T01:17:33.563Z,79.87
2018-11-02T01:20:04.797Z,86.70
2018-11-02T01:22:35.803Z,87.63
2018-11-02T01:25:06.966Z,89.30
2018-11-02T01:27:37.393Z,95.80
2018-11-02T01:30:08.383Z,91.43
2018-11-02T01:32:38.716Z,92.83
2018-11-02T01:35:09.954Z,95.07
2018-11-02T01:37:40.798Z,97.03
2018-11-02T01:40:10.843Z,95.23
2018-11-02T01:42:41.579Z,99.23
2018-11-02T01:45:12.334Z,96.27
2018-11-02T01:47:42.511Z,99.27
2018-11-02T01:50:12.968Z,88.13
2018-11-02T01:52:43.698Z,85.27
2018-11-02T01:55:14.397Z,85.33
2018-11-02T01:57:45.273Z,91.00
2018-11-02T02:00:16.108Z,88.00
2018-11-02T02:02:46.663Z,91.13
2018-11-02T02:05:17.578Z,87.73
2018-11-02T02:07:48.262Z,90.17
2018-11-02T02:10:18.476Z,91.10
2018-11-02T02:12:49.585Z,91.67
2018-11-02T02:15:20.496Z,86.23
2018-11-02T02:17:51.347Z,91.73
2018-11-02T02:20:22.362Z,92.60
2018-11-02T02:22:52.866Z,87.70
2018-11-02T02:25:23.526Z,89.67
2018-11-02T02:27:54.528Z,93.50
2018-11-02T02:30:25.137Z,83.80
2018-11-02T02:32:56.655Z,83.70
2018-11-02T02:35:27.535Z,87.07
2018-11-02T02:37:58.644Z,84.03
2018-11-02T02:40:29.411Z,87.93
2018-11-02T02:42:59.951Z,86.60
2018-11-02T02:45:31.022Z,83.47
2018-11-02T02:48:01.700Z,85.77
2018-11-02T02:50:33.106Z,74.70
2018-11-02T02:53:03.870Z,75.63
2018-11-02T02:55:34.821Z,81.13
2018-11-02T02:58:05.888Z,76.90
2018-11-02T03:00:36.924Z,78.70
2018-11-02T03:03:08.014Z,76.80
2018-11-02T03:05:37.973Z,79.50
2018-11-02T03:08:08.749Z,77.47
2018-11-02T03:10:39.606Z,78.07
2018-11-02T03:13:10.130Z,72.87
2018-11-02T03:15:40.923Z,73.43
2018-11-02T03:18:11.802Z,72.03
2018-11-02T03:20:42.845Z,71.93
2018-11-02T03:23:13.874Z,75.90
2018-11-02T03:25:44.466Z,77.13
2018-11-02T03:28:14.859Z,75.97
2018-11-02T03:30:45.517Z,74.77
2018-11-02T03:33:15.627Z,75.27
2018-11-02T03:35:46.356Z,73.00
2018-11-02T03:38:17.080Z,74.90
2018-11-02T03:40:47.787Z,81.40
2018-11-02T03:43:17.875Z,80.40
2018-11-02T03:45:48.755Z,73.37
2018-11-02T03:48:19.563Z,77.03
2018-11-02T03:50:50.377Z,77.37
2018-11-02T03:53:21.091Z,73.43
2018-11-02T03:55:51.418Z,70.10
2018-11-02T03:58:22.934Z,68.23
2018-11-02T04:00:54.100Z,72.87
2018-11-02T04:03:25.955Z,71.43
2018-11-02T04:05:56.002Z,69.37
2018-11-02T04:08:27.036Z,68.77
2018-11-02T04:10:57.759Z,68.97
2018-11-02T04:13:28.005Z,65.20
2018-11-02T04:15:59.368Z,68.73
2018-11-02T04:18:30.722Z,66.40
2018-11-02T04:21:01.014Z,62.93
2018-11-02T04:23:30.917Z,63.33
2018-11-02T04:26:01.398Z,67.13
2018-11-02T04:28:32.164Z,63.77
2018-11-02T04:31:03.549Z,66.13
2018-11-02T04:33:34.802Z,63.77
2018-11-02T04:36:06.342Z,67.13
2018-11-02T04:38:37.139Z,63.73
2018-11-02T04:41:07.897Z,65.23
2018-11-02T04:43:38.671Z,62.13
2018-11-02T04:46:09.626Z,61.90
2018-11-02T04:48:40.256Z,63.40
2018-11-02T04:51:11.463Z,62.60
2018-11-02T04:53:42.632Z,58.97
2018-11-02T04:56:13.697Z,65.70
2018-11-02T04:58:44.119Z,60.33
2018-11-02T05:01:14.691Z,57.87
2018-11-02T05:03:45.688Z,62.53
2018-11-02T05:06:16.753Z,61.73
2018-11-02T05:08:47.311Z,76.80
2018-11-02T05:11:18.600Z,64.93
2018-11-02T05:13:49.797Z,66.07
2018-11-02T05:16:21.325Z,70.20
2018-11-02T05:18:52.319Z,65.17
2018-11-02T05:21:23.001Z,63.60
2018-11-02T05:23:53.818Z,58.10
2018-11-02T05:26:25.516Z,67.33
2018-11-02T05:28:55.939Z,92.43
2018-11-02T05:31:27.132Z,65.60
2018-11-02T05:33:59.358Z,64.53
2018-11-02T05:36:31.378Z,60.93
2018-11-02T05:39:02.159Z,67.17
2018-11-02T05:41:33.479Z,66.20
2018-11-02T05:44:04.322Z,68.73
2018-11-02T05:46:35.600Z,68.13
2018-11-02T05:49:07.354Z,66.30
2018-11-02T05:51:38.201Z,56.97
2018-11-02T05:54:09.186Z,55.20
2018-11-02T05:56:40.365Z,62.07
2018-11-02T05:59:12.188Z,58.23
2018-11-02T06:01:42.792Z,54.80
2018-11-02T06:04:13.891Z,52.77
2018-11-02T06:06:45.785Z,62.67
2018-11-02T06:09:16.942Z,55.47
2018-11-02T06:11:48.157Z,63.90
2018-11-02T06:14:19.379Z,63.23
2018-11-02T06:16:50.589Z,64.13
2018-11-02T06:19:21.388Z,60.50
2018-11-02T06:21:51.587Z,59.73
2018-11-02T06:24:22.491Z,62.93
2018-11-02T06:26:53.111Z,61.20
2018-11-02T06:29:23.874Z,69.00
2018-11-02T06:31:54.762Z,75.33
2018-11-02T06:34:25.517Z,67.77
2018-11-02T06:36:56.443Z,40.27
2018-11-02T06:39:27.261Z,36.17
2018-11-02T06:41:57.942Z,36.37
2018-11-02T06:44:28.698Z,18.37
2018-11-02T06:46:59.298Z,33.47
2018-11-02T06:49:30.155Z,11.90
2018-11-02T06:52:01.706Z,22.10
2018-11-02T06:54:33.323Z,23.37
2018-11-02T06:57:03.740Z,86.37
2018-11-02T06:59:34.896Z,77.40
2018-11-02T07:02:05.822Z,79.20
2018-11-02T07:04:37.513Z,85.43
2018-11-02T07:07:08.220Z,81.17
2018-11-02T07:09:39.393Z,74.80
2018-11-02T07:12:10.857Z,77.23
2018-11-02T07:14:41.713Z,78.27
2018-11-02T07:17:11.649Z,80.00
2018-11-02T07:19:42.471Z,78.80
2018-11-02T07:22:12.415Z,47.27
2018-11-02T07:24:42.448Z,29.97
2018-11-02T07:27:13.441Z,31.17
2018-11-02T07:29:44.225Z,29.37
2018-11-02T07:32:15.228Z,24.93
2018-11-02T07:34:46.281Z,20.87
2018-11-02T07:37:17.448Z,24.03
2018-11-02T07:39:48.584Z,27.20
2018-11-02T07:42:19.309Z,27.97
2018-11-02T07:44:49.726Z,29.43
2018-11-02T07:47:21.318Z,29.50
2018-11-02T07:49:52.468Z,27.80
2018-11-02T07:52:23.797Z,26.63
2018-11-02T07:54:55.430Z,27.03
2018-11-02T07:57:27.661Z,26.73
2018-11-02T07:59:59.114Z,30.63
2018-11-02T08:02:30.575Z,27.27
2018-11-02T08:05:01.829Z,26.50
2018-11-02T08:07:32.822Z,27.03
2018-11-02T08:10:03.626Z,26.80
2018-11-02T08:12:34.651Z,27.60
2018-11-02T08:15:06.549Z,28.80
2018-11-02T08:17:38.146Z,28.20
2018-11-02T08:20:11.171Z,28.00
2018-11-02T08:22:44.005Z,27.47
2018-11-02T08:25:14.842Z,26.17
2018-11-02T08:27:46.575Z,26.63
2018-11-02T08:30:17.762Z,24.83
2018-11-02T08:32:49.161Z,27.67
2018-11-02T08:35:20.373Z,27.03
2018-11-02T08:37:51.626Z,26.07
2018-11-02T08:40:23.187Z,25.50
2018-11-02T08:42:54.414Z,25.53
2018-11-02T08:45:25.918Z,25.47
2018-11-02T08:47:57.664Z,27.30
2018-11-02T08:50:28.992Z,27.30
2018-11-02T08:52:59.924Z,26.43
2018-11-02T08:55:31.300Z,24.93
2018-11-02T08:58:02.578Z,29.23
2018-11-02T09:00:32.929Z,25.37
2018-11-02T09:03:03.282Z,25.70
2018-11-02T09:05:34.308Z,27.13
2018-11-02T09:08:05.422Z,24.30
2018-11-02T09:10:37.383Z,25.27
2018-11-02T09:13:08.504Z,24.00
2018-11-02T09:15:39.316Z,23.47
2018-11-02T09:18:10.362Z,21.97
2018-11-02T09:20:41.585Z,22.37
2018-11-02T09:23:12.580Z,22.03
2018-11-02T09:25:44.307Z,22.40
2018-11-02T09:28:16.406Z,23.50
2018-11-02T09:30:47.375Z,22.90
2018-11-02T09:33:18.391Z,23.10
2018-11-02T09:35:50.676Z,22.50
2018-11-02T09:38:22.130Z,23.93
2018-11-02T09:40:53.073Z,21.97
2018-11-02T09:43:23.992Z,21.57
2018-11-02T09:45:55.453Z,20.97
2018-11-02T09:48:27.162Z,20.73
2018-11-02T09:50:58.183Z,20.37
2018-11-02T09:53:29.406Z,21.23
2018-11-02T09:55:59.909Z,21.87
2018-11-02T09:58:31.141Z,22.47
2018-11-02T10:01:02.005Z,23.33
2018-11-02T10:03:33.139Z,22.57
2018-11-02T10:06:04.203Z,19.33
2018-11-02T10:08:35.432Z,19.93
2018-11-02T10:11:06.799Z,25.20
2018-11-02T10:13:38.630Z,25.43
2018-11-02T10:16:10.196Z,22.93
2018-11-02T10:18:41.490Z,24.37
2018-11-02T10:21:12.948Z,25.83
2018-11-02T10:23:44.135Z,25.77
2018-11-02T10:26:15.713Z,23.17
2018-11-02T10:28:46.336Z,23.33
2018-11-02T10:31:16.743Z,22.47
2018-11-02T10:33:48.163Z,22.17
2018-11-02T10:36:19.543Z,23.07
2018-11-02T10:38:51.048Z,26.23
2018-11-02T10:41:27.515Z,25.63
2018-11-02T10:43:58.817Z,22.67
2018-11-02T10:46:29.805Z,24.33
2018-11-02T10:49:00.573Z,24.67
2018-11-02T10:51:31.994Z,24.67
2018-11-02T10:54:02.573Z,24.70
2018-11-02T10:56:33.430Z,23.43
2018-11-02T10:59:04.351Z,24.93
2018-11-02T11:01:40.366Z,30.77
2018-11-02T11:04:11.947Z,28.00
2018-11-02T11:06:43.386Z,24.33
2018-11-02T11:09:14.579Z,24.03
2018-11-02T11:11:46.113Z,25.33
2018-11-02T11:14:17.150Z,26.70
2018-11-02T11:16:47.604Z,23.80
2018-11-02T11:19:18.684Z,25.07
2018-11-02T11:21:49.407Z,26.53
2018-11-02T11:24:20.880Z,25.37
2018-11-02T11:26:52.603Z,23.00
2018-11-02T11:29:22.966Z,20.97
2018-11-02T11:31:54.071Z,21.30
2018-11-02T11:34:25.460Z,24.90
2018-11-02T11:36:57.808Z,23.70
2018-11-02T11:39:28.205Z,23.93
2018-11-02T11:41:58.781Z,22.67
2018-11-02T11:44:29.731Z,24.47
2018-11-02T11:46:59.746Z,25.23
2018-11-02T11:49:30.779Z,26.10
2018-11-02T11:52:18.100Z,22.67
2018-11-02T11:54:48.005Z,23.30
2018-11-02T11:57:18.025Z,22.27
2018-11-02T11:59:48.130Z,25.27
2018-11-02T12:02:18.758Z,25.70
2018-11-02T12:04:49.104Z,25.70
2018-11-02T12:07:19.898Z,29.27
2018-11-02T12:09:50.524Z,26.67
2018-11-02T12:12:27.575Z,28.57
2018-11-02T12:15:01.130Z,29.00
2018-11-02T12:17:32.477Z,28.37
2018-11-02T12:20:03.917Z,34.07
2018-11-02T12:22:35.214Z,26.17
2018-11-02T12:25:06.936Z,26.20
2018-11-02T12:27:39.007Z,26.57
2018-11-02T12:30:11.033Z,26.47
2018-11-02T12:32:44.185Z,27.07
2018-11-02T12:35:16.812Z,27.63
2018-11-02T12:37:48.083Z,26.83
2018-11-02T12:40:20.128Z,27.50
2018-11-02T12:42:52.194Z,28.43
2018-11-02T12:45:23.475Z,26.87
2018-11-02T12:47:54.636Z,28.43
2018-11-02T12:50:28.321Z,26.77
2018-11-02T12:53:00.608Z,27.80
2018-11-02T12:55:32.412Z,25.83
2018-11-02T12:58:03.911Z,27.40
2018-11-02T13:00:35.443Z,27.03
2018-11-02T13:03:06.587Z,28.13
2018-11-02T13:05:38.265Z,26.90
2018-11-02T13:08:09.071Z,26.90
2018-11-02T13:10:39.912Z,26.40
2018-11-02T13:13:11.178Z,26.60
2018-11-02T13:15:42.445Z,39.47
2018-11-02T13:18:13.483Z,25.50
2018-11-02T13:20:44.772Z,24.00
2018-11-02T13:23:15.882Z,25.00
2018-11-02T13:25:47.671Z,24.23
2018-11-02T13:28:18.905Z,24.93
2018-11-02T13:30:49.754Z,25.57
2018-11-02T13:33:20.901Z,25.57
2018-11-02T13:35:51.893Z,25.83
2018-11-02T13:38:22.871Z,26.40
2018-11-02T13:40:53.652Z,25.63
2018-11-02T13:43:25.598Z,26.17
2018-11-02T13:45:57.027Z,25.30
2018-11-02T13:48:27.874Z,25.70
2018-11-02T13:50:58.280Z,27.53
2018-11-02T13:53:28.556Z,27.23
2018-11-02T13:55:59.277Z,26.70
2018-11-02T13:58:30.623Z,26.87
2018-11-02T14:01:01.968Z,27.83
2018-11-02T14:03:32.567Z,25.73
2018-11-02T14:06:03.558Z,26.00
2018-11-02T14:08:34.921Z,31.47
2018-11-02T14:11:06.446Z,26.27
2018-11-02T14:13:38.564Z,24.63
2018-11-02T14:16:09.594Z,27.60
2018-11-02T14:18:41.667Z,34.40
2018-11-02T14:21:12.834Z,25.23
2018-11-02T14:23:44.429Z,30.27
2018-11-02T14:26:15.301Z,26.03
2018-11-02T14:28:47.410Z,27.10
2018-11-02T14:31:18.659Z,27.13
2018-11-02T14:33:49.703Z,26.57
2018-11-02T14:36:20.696Z,27.33
2018-11-02T14:38:51.718Z,25.83
2018-11-02T14:41:23.113Z,38.47
2018-11-02T14:43:54.836Z,26.83
2018-11-02T14:46:26.249Z,24.93
2018-11-02T14:48:57.743Z,18.73
2018-11-02T14:51:29.148Z,18.23
2018-11-02T14:54:00.547Z,24.00
2018-11-02T14:56:31.786Z,44.73
2018-11-02T14:59:02.965Z,44.53
2018-11-02T15:01:34.464Z,39.60
2018-11-02T15:04:07.015Z,34.53
2018-11-02T15:06:37.898Z,40.40
2018-11-02T15:09:12.629Z,87.47
2018-11-02T15:11:43.469Z,105.53
2018-11-02T15:14:13.376Z,47.50
2018-11-02T15:16:44.635Z,40.53
2018-11-02T15:19:15.856Z,45.53
2018-11-02T15:21:47.317Z,41.07
2018-11-02T15:24:18.491Z,33.27
2018-11-02T15:26:49.430Z,49.00
2018-11-02T15:29:20.425Z,35.63
2018-11-02T15:31:52.322Z,30.10
2018-11-02T15:34:24.043Z,29.70
2018-11-02T15:36:55.251Z,27.33
2018-11-02T15:39:25.668Z,46.17
2018-11-02T15:41:58.703Z,28.90
2018-11-02T15:44:29.101Z,30.70
2018-11-02T15:47:00.319Z,23.90
2018-11-02T15:49:30.754Z,24.50
2018-11-02T15:52:02.498Z,25.67
2018-11-02T15:54:34.716Z,24.60
2018-11-02T15:57:06.006Z,26.50
2018-11-02T15:59:36.841Z,25.57
2018-11-02T16:02:08.434Z,26.97
2018-11-02T16:04:39.327Z,28.20
2018-11-02T16:07:10.478Z,28.33
2018-11-02T16:09:42.254Z,28.83
2018-11-02T16:12:13.345Z,25.90
2018-11-02T16:14:44.466Z,26.37
2018-11-02T16:17:17.539Z,27.63
2018-11-02T16:19:48.727Z,28.40
2018-11-02T16:22:20.413Z,26.57
2018-11-02T16:24:51.285Z,26.80
2018-11-02T16:27:22.375Z,26.87
2018-11-02T16:29:53.585Z,29.30
2018-11-02T16:32:25.029Z,26.77
2018-11-02T16:34:56.111Z,27.03
2018-11-02T16:37:28.673Z,27.17
2018-11-02T16:39:59.756Z,27.57
2018-11-02T16:42:30.732Z,27.40
2018-11-02T16:45:01.960Z,28.50
2018-11-02T16:47:33.706Z,28.30
2018-11-02T16:50:04.930Z,25.17
2018-11-02T16:52:35.944Z,30.00
2018-11-02T16:55:07.295Z,30.87
2018-11-02T16:57:38.859Z,28.33
2018-11-02T17:00:13.049Z,26.43
2018-11-02T17:02:44.855Z,27.67
2018-11-02T17:05:16.074Z,30.13
2018-11-02T17:07:47.281Z,28.37
2018-11-02T17:10:18.646Z,27.10
2018-11-02T17:12:51.491Z,29.67
2018-11-02T17:15:22.747Z,31.40
2018-11-02T17:17:53.961Z,30.27
2018-11-02T17:20:25.748Z,29.97
2018-11-02T17:22:57.349Z,29.37
2018-11-02T17:25:28.510Z,32.93
2018-11-02T17:27:59.854Z,28.83
2018-11-02T17:30:31.588Z,29.53
2018-11-02T17:33:03.428Z,31.43
2018-11-02T17:35:34.577Z,36.40
2018-11-02T17:38:04.783Z,34.43
2018-11-02T17:40:35.335Z,35.10
2018-11-02T17:43:06.783Z,33.97
2018-11-02T17:45:37.740Z,35.83
2018-11-02T17:48:08.614Z,37.20
2018-11-02T17:50:39.699Z,34.83
2018-11-02T17:53:11.037Z,34.50
2018-11-02T17:55:41.704Z,33.33
2018-11-02T17:58:12.104Z,35.23
2018-11-02T18:00:42.804Z,34.67
2018-11-02T18:03:13.125Z,35.47
2018-11-02T18:05:44.313Z,37.10
2018-11-02T18:08:15.404Z,40.13
2018-11-02T18:10:46.470Z,36.00
2018-11-02T18:13:17.466Z,35.93
2018-11-02T18:15:48.409Z,37.13
2018-11-02T18:18:18.938Z,33.97
2018-11-02T18:20:50.172Z,34.47
2018-11-02T18:23:21.220Z,34.10
2018-11-02T18:25:52.412Z,30.73
2018-11-02T18:28:23.593Z,30.17
2018-11-02T18:30:54.548Z,30.13
2018-11-02T18:33:25.716Z,29.03
2018-11-02T18:35:56.923Z,27.20
2018-11-02T18:38:28.143Z,27.10
2018-11-02T18:40:58.920Z,21.83
2018-11-02T18:43:30.158Z,23.90
2018-11-02T18:46:02.515Z,27.07
2018-11-02T18:48:33.827Z,31.03
2018-11-02T18:51:05.033Z,30.10
2018-11-02T18:53:37.382Z,29.87
2018-11-02T18:56:08.603Z,31.53
2018-11-02T18:58:40.006Z,23.97
2018-11-02T19:01:11.092Z,31.17
2018-11-02T19:03:42.346Z,24.67
2018-11-02T19:06:12.335Z,23.93
2018-11-02T19:08:43.741Z,21.97
2018-11-02T19:11:14.951Z,20.47
2018-11-02T19:13:45.249Z,23.10
2018-11-02T19:16:16.587Z,21.80
2018-11-02T19:18:48.257Z,19.73
2018-11-02T19:21:19.350Z,20.97
2018-11-02T19:23:50.526Z,19.47
2018-11-02T19:26:21.676Z,21.37
2018-11-02T19:28:52.544Z,396.97
2018-11-02T19:31:23.704Z,27.13
2018-11-02T19:33:55.090Z,25.57
2018-11-02T19:36:27.180Z,22.07
2018-11-02T19:38:58.515Z,25.30
2018-11-02T19:41:29.779Z,26.80
2018-11-02T19:44:00.623Z,22.90
2018-11-02T19:46:32.983Z,31.43
2018-11-02T19:49:04.457Z,37.63
2018-11-02T19:51:35.399Z,34.07
2018-11-02T19:54:06.032Z,52.33
2018-11-02T19:56:37.044Z,43.93
2018-11-02T19:59:08.776Z,41.00
2018-11-02T20:01:39.685Z,35.63
2018-11-02T20:04:11.418Z,35.87
2018-11-02T20:06:42.471Z,38.43
2018-11-02T20:09:14.036Z,45.17
2018-11-02T20:11:46.366Z,35.23
2018-11-02T20:14:17.735Z,54.97
2018-11-02T20:16:47.634Z,38.23
2018-11-02T20:19:18.351Z,48.00
2018-11-02T20:21:49.236Z,39.00
2018-11-02T20:24:19.709Z,36.60
2018-11-02T20:26:50.615Z,38.03
2018-11-02T20:29:22.167Z,106.60
2018-11-02T20:31:52.926Z,183.17
2018-11-02T20:34:24.811Z,45.00
2018-11-02T20:36:55.674Z,68.23
2018-11-02T20:39:26.774Z,162.03
2018-11-02T20:41:57.409Z,38.10
2018-11-02T20:44:28.354Z,43.90
2018-11-02T20:46:59.549Z,39.53
2018-11-02T20:49:30.258Z,38.20
2018-11-02T20:52:01.220Z,38.40
2018-11-02T20:54:32.088Z,36.83
2018-11-02T20:57:03.880Z,37.90
2018-11-02T20:59:34.986Z,39.80
2018-11-02T21:02:06.437Z,37.97
2018-11-02T21:04:37.376Z,38.07
2018-11-02T21:07:08.636Z,35.73
2018-11-02T21:09:39.734Z,35.43
2018-11-02T21:12:11.173Z,35.13
2018-11-02T21:14:42.652Z,33.23
2018-11-02T21:17:12.864Z,32.50
2018-11-02T21:19:44.970Z,34.87
2018-11-02T21:22:16.361Z,33.40
2018-11-02T21:24:47.390Z,36.30
2018-11-02T21:27:18.112Z,33.37
2018-11-02T21:29:49.278Z,34.63
2018-11-02T21:32:20.186Z,34.40
2018-11-02T21:34:50.890Z,34.77
2018-11-02T21:37:22.178Z,36.77
2018-11-02T21:39:52.934Z,35.77
2018-11-02T21:42:23.639Z,35.13
2018-11-02T21:44:54.284Z,36.73
2018-11-02T21:47:25.233Z,38.87
2018-11-02T21:49:56.253Z,40.40
2018-11-02T21:52:27.662Z,39.97
2018-11-02T21:54:58.829Z,42.40
2018-11-02T21:57:29.623Z,43.67
2018-11-02T22:00:00.689Z,44.17
2018-11-02T22:02:32.068Z,44.57
2018-11-02T22:05:03.395Z,47.37
2018-11-02T22:07:34.422Z,49.17
2018-11-02T22:10:06.271Z,44.67
2018-11-02T22:12:37.661Z,46.90
2018-11-02T22:15:09.503Z,44.87
2018-11-02T22:17:41.260Z,44.80
2018-11-02T22:20:13.985Z,46.08
2018-11-02T22:22:45.070Z,41.53
2018-11-02T22:25:16.606Z,40.83
2018-11-02T22:27:46.885Z,40.17
2018-11-02T22:30:18.498Z,39.37
2018-11-02T22:32:48.556Z,40.33
2018-11-02T22:35:20.140Z,39.50
2018-11-02T22:37:51.485Z,45.63
2018-11-02T22:40:22.480Z,47.40
2018-11-02T22:42:53.110Z,38.30
2018-11-02T22:45:23.090Z,40.63
2018-11-02T22:47:59.594Z,40.93
2018-11-02T22:50:30.614Z,41.07
2018-11-02T22:53:01.566Z,38.57
2018-11-02T22:55:32.535Z,39.60
2018-11-02T22:58:03.487Z,36.97
2018-11-02T23:00:39.143Z,37.80
2018-11-02T23:03:09.304Z,38.33
2018-11-02T23:05:40.593Z,38.57
2018-11-02T23:08:11.565Z,39.20
2018-11-02T23:10:41.938Z,37.77
2018-11-02T23:13:12.211Z,39.20
2018-11-02T23:15:42.893Z,37.77
2018-11-02T23:18:12.886Z,38.73
2018-11-02T23:20:43.738Z,37.00
2018-11-02T23:23:14.206Z,38.90
2018-11-02T23:25:45.030Z,35.07
2018-11-02T23:28:15.839Z,38.20
2018-11-02T23:30:46.729Z,36.27
2018-11-02T23:33:17.326Z,37.77
2018-11-02T23:35:47.270Z,37.67
2018-11-02T23:38:17.649Z,38.17
2018-11-02T23:40:48.349Z,36.30
2018-11-02T23:43:19.265Z,38.53
2018-11-02T23:45:50.204Z,35.90
2018-11-02T23:48:21.034Z,36.33
2018-11-02T23:50:52.124Z,34.93
2018-11-02T23:53:22.853Z,31.63
2018-11-02T23:55:53.759Z,29.70
2018-11-02T23:58:24.091Z,32.47
